Time;durP1;ratioP1;P1;durP2;ratioP2;P2;SDS_P1;SDS_P2;PMS_P1;PMS_P2;Temp;Humidity;BMP_temperature;BMP_pressure;BME280_temperature;BME280_humidity;BME280_pressure;Samples;Min_cycle;Max_cycle;Signal;HPM_P1;HPM_P2
2024/02/25 00:00:48;;;;;;;;;7.33;7.00;;;;;;;;5059644;28;45385;-84
2024/02/25 00:03:13;;;;;;;;;6.00;5.00;;;;;;;;5060285;28;45183;-85
2024/02/25 00:05:39;;;;;;;;;4.00;4.00;;;;;;;;5058129;28;46469;-85
2024/02/25 00:08:05;;;;;;;;;2.33;2.33;;;;;;;;5058503;28;48262;-85
2024/02/25 00:10:30;;;;;;;;;6.33;4.33;;;;;;;;5059252;28;45418;-85
2024/02/25 00:12:55;;;;;;;;;4.67;4.67;;;;;;;;5059278;28;45291;-86
2024/02/25 00:15:20;;;;;;;;;4.00;4.00;;;;;;;;5058242;28;47098;-85
2024/02/25 00:17:46;;;;;;;;;4.00;4.00;;;;;;;;5059068;28;45432;-84
2024/02/25 00:20:11;;;;;;;;;0.00;0.00;;;;;;;;5059691;28;45260;-86
2024/02/25 00:22:36;;;;;;;;;4.00;4.00;;;;;;;;5060015;28;45378;-85
2024/02/25 00:25:01;;;;;;;;;4.00;4.00;;;;;;;;5059624;28;45396;-84
2024/02/25 00:27:26;;;;;;;;;5.00;4.67;;;;;;;;5059442;28;45397;-85
2024/02/25 00:29:52;;;;;;;;;3.00;3.00;;;;;;;;5060279;28;45314;-83
2024/02/25 00:32:17;;;;;;;;;6.00;4.67;;;;;;;;5059890;28;45235;-84
2024/02/25 00:34:42;;;;;;;;;5.33;5.33;;;;;;;;5059356;28;45311;-83
2024/02/25 00:37:07;;;;;;;;;4.67;4.67;;;;;;;;5059742;28;46363;-85
2024/02/25 00:39:32;;;;;;;;;4.67;4.67;;;;;;;;5059712;28;45413;-85
2024/02/25 00:42:01;;;;;;;;;2.33;2.33;;;;;;;;5059606;28;45252;-84
2024/02/25 00:44:27;;;;;;;;;4.00;4.00;;;;;;;;5059310;28;45271;-85
2024/02/25 00:46:52;;;;;;;;;4.00;4.00;;;;;;;;5059261;28;45223;-85
2024/02/25 00:49:17;;;;;;;;;3.00;3.00;;;;;;;;5059560;28;45362;-84
2024/02/25 00:51:42;;;;;;;;;6.00;4.00;;;;;;;;5059491;28;45433;-84
2024/02/25 00:54:08;;;;;;;;;4.67;4.00;;;;;;;;5058874;28;45417;-84
2024/02/25 00:56:33;;;;;;;;;5.33;4.00;;;;;;;;5060249;28;46019;-84
2024/02/25 00:58:58;;;;;;;;;5.67;4.33;;;;;;;;5079114;27;45480;-85
2024/02/25 01:01:23;;;;;;;;;3.00;3.00;;;;;;;;5079016;27;45547;-84
2024/02/25 01:03:48;;;;;;;;;4.67;4.00;;;;;;;;5079337;27;45364;-84
2024/02/25 01:06:14;;;;;;;;;5.67;5.00;;;;;;;;5079176;28;45962;-85
2024/02/25 01:08:39;;;;;;;;;6.00;5.00;;;;;;;;5079713;27;45321;-85
2024/02/25 01:11:11;;;;;;;;;5.00;5.00;;;;;;;;5078108;28;45345;-84
2024/02/25 01:13:36;;;;;;;;;3.67;3.67;;;;;;;;5079102;27;45446;-86
2024/02/25 01:16:04;;;;;;;;;5.00;4.00;;;;;;;;5077750;28;47452;-85
2024/02/25 01:18:30;;;;;;;;;5.00;5.00;;;;;;;;5079107;27;45472;-86
2024/02/25 01:20:55;;;;;;;;;6.00;6.00;;;;;;;;5079434;28;45299;-85
2024/02/25 01:23:20;;;;;;;;;5.00;5.00;;;;;;;;5077523;28;45484;-86
2024/02/25 01:25:45;;;;;;;;;5.33;5.33;;;;;;;;5077552;27;45519;-85
2024/02/25 01:28:11;;;;;;;;;5.67;4.33;;;;;;;;5058615;28;45296;-86
2024/02/25 01:30:36;;;;;;;;;5.67;5.67;;;;;;;;5059948;28;45260;-84
2024/02/25 01:33:01;;;;;;;;;5.67;5.67;;;;;;;;5060011;28;46129;-84
2024/02/25 01:35:26;;;;;;;;;4.33;4.33;;;;;;;;5062059;28;46431;-86
2024/02/25 01:37:51;;;;;;;;;7.67;5.00;;;;;;;;5062207;28;45278;-85
2024/02/25 01:40:17;;;;;;;;;6.67;5.33;;;;;;;;5062460;28;45426;-84
2024/02/25 01:42:42;;;;;;;;;5.00;5.00;;;;;;;;5062143;28;45599;-84
2024/02/25 01:45:07;;;;;;;;;4.00;4.00;;;;;;;;5062825;28;45337;-85
2024/02/25 01:47:32;;;;;;;;;7.33;6.00;;;;;;;;5060606;28;46133;-84
2024/02/25 01:49:58;;;;;;;;;4.00;4.00;;;;;;;;5062022;28;45258;-84
2024/02/25 01:52:24;;;;;;;;;5.00;5.00;;;;;;;;5062202;28;45121;-85
2024/02/25 01:54:50;;;;;;;;;5.00;4.00;;;;;;;;5061817;28;45939;-84
2024/02/25 01:57:15;;;;;;;;;4.00;4.00;;;;;;;;5068735;28;45196;-84
2024/02/25 01:59:41;;;;;;;;;3.00;3.00;;;;;;;;5082891;27;45353;-84
2024/02/25 02:02:13;;;;;;;;;4.33;3.67;;;;;;;;5082190;27;45310;-84
2024/02/25 02:04:38;;;;;;;;;5.00;4.00;;;;;;;;5080449;28;47273;-85
2024/02/25 02:07:03;;;;;;;;;5.33;4.67;;;;;;;;5082418;28;45278;-84
2024/02/25 02:09:30;;;;;;;;;5.00;5.00;;;;;;;;5063874;27;45254;-83
2024/02/25 02:11:58;;;;;;;;;5.00;4.67;;;;;;;;5061811;28;45330;-85
2024/02/25 02:14:23;;;;;;;;;3.33;3.00;;;;;;;;5059367;28;47578;-85
2024/02/25 02:16:49;;;;;;;;;3.00;3.00;;;;;;;;5061322;28;45330;-85
2024/02/25 02:19:14;;;;;;;;;4.33;4.00;;;;;;;;5060366;28;45437;-85
2024/02/25 02:21:39;;;;;;;;;4.67;2.00;;;;;;;;5063120;28;45376;-85
2024/02/25 02:24:05;;;;;;;;;5.33;3.67;;;;;;;;5062161;28;45393;-85
2024/02/25 02:26:30;;;;;;;;;1.33;1.00;;;;;;;;5060338;28;45665;-84
2024/02/25 02:28:56;;;;;;;;;2.67;2.00;;;;;;;;5061114;28;45252;-84
2024/02/25 02:31:21;;;;;;;;;2.00;2.00;;;;;;;;5061283;28;45302;-84
2024/02/25 02:33:46;;;;;;;;;3.00;3.00;;;;;;;;5061255;28;46032;-85
2024/02/25 02:36:11;;;;;;;;;1.67;1.67;;;;;;;;5061105;28;45284;-84
2024/02/25 02:38:37;;;;;;;;;4.00;4.00;;;;;;;;5060202;28;45329;-84
2024/02/25 02:41:03;;;;;;;;;2.00;2.00;;;;;;;;5060494;28;45297;-84
2024/02/25 02:43:28;;;;;;;;;3.00;3.00;;;;;;;;5061076;28;45343;-84
2024/02/25 02:45:55;;;;;;;;;3.00;3.00;;;;;;;;5061127;28;45215;-84
2024/02/25 02:48:20;;;;;;;;;5.67;4.33;;;;;;;;5059210;28;45331;-84
2024/02/25 02:50:45;;;;;;;;;4.00;4.00;;;;;;;;5060369;28;45386;-85
2024/02/25 02:53:11;;;;;;;;;3.00;3.00;;;;;;;;5060516;28;46580;-86
2024/02/25 02:55:36;;;;;;;;;2.67;2.67;;;;;;;;5060799;28;45289;-85
2024/02/25 02:58:01;;;;;;;;;4.33;4.33;;;;;;;;5074259;28;45334;-85
2024/02/25 03:00:28;;;;;;;;;3.00;3.00;;;;;;;;5081665;27;45208;-84
2024/02/25 03:02:53;;;;;;;;;5.00;5.00;;;;;;;;5081535;28;45346;-84
2024/02/25 03:05:18;;;;;;;;;6.00;6.00;;;;;;;;5081899;27;45300;-84
2024/02/25 03:07:48;;;;;;;;;3.00;3.00;;;;;;;;5079931;28;45328;-84
2024/02/25 03:10:14;;;;;;;;;4.00;4.00;;;;;;;;5079827;28;46451;-84
2024/02/25 03:12:39;;;;;;;;;6.00;4.33;;;;;;;;5080655;27;46314;-84
2024/02/25 03:15:04;;;;;;;;;4.00;2.33;;;;;;;;5081712;27;45592;-84
2024/02/25 03:17:30;;;;;;;;;4.67;3.33;;;;;;;;5080971;27;45553;-83
2024/02/25 03:19:55;;;;;;;;;3.00;3.00;;;;;;;;5080816;27;45544;-83
2024/02/25 03:22:20;;;;;;;;;2.00;2.00;;;;;;;;5080821;27;45396;-83
2024/02/25 03:24:45;;;;;;;;;5.67;5.67;;;;;;;;5080653;27;45355;-83
2024/02/25 03:27:11;;;;;;;;;2.33;2.33;;;;;;;;5080768;27;45235;-83
2024/02/25 03:29:36;;;;;;;;;5.67;3.00;;;;;;;;5080467;28;45252;-83
2024/02/25 03:32:01;;;;;;;;;4.00;4.00;;;;;;;;5080525;27;46503;-83
2024/02/25 03:34:26;;;;;;;;;3.33;3.33;;;;;;;;5080560;27;45268;-83
2024/02/25 03:36:51;;;;;;;;;3.33;2.67;;;;;;;;5080757;27;45359;-82
2024/02/25 03:39:17;;;;;;;;;4.33;3.33;;;;;;;;5072355;28;45244;-82
2024/02/25 03:41:42;;;;;;;;;4.00;4.00;;;;;;;;5060106;28;45421;-82
2024/02/25 03:44:07;;;;;;;;;5.00;4.00;;;;;;;;5059985;28;45271;-83
2024/02/25 03:46:32;;;;;;;;;5.00;5.00;;;;;;;;5059334;28;45296;-83
2024/02/25 03:48:57;;;;;;;;;5.00;5.00;;;;;;;;5058494;28;46083;-83
2024/02/25 03:51:23;;;;;;;;;4.00;4.00;;;;;;;;5061580;28;45426;-83
2024/02/25 03:53:48;;;;;;;;;7.33;5.00;;;;;;;;5059831;28;45370;-83
2024/02/25 03:56:13;;;;;;;;;6.67;6.67;;;;;;;;5059533;28;45359;-84
2024/02/25 03:58:38;;;;;;;;;6.00;5.00;;;;;;;;5059886;28;45338;-82
2024/02/25 04:01:04;;;;;;;;;4.33;4.33;;;;;;;;5060425;28;45465;-83
2024/02/25 04:03:29;;;;;;;;;6.67;4.33;;;;;;;;5059796;28;45267;-83
2024/02/25 04:05:55;;;;;;;;;4.33;4.00;;;;;;;;5059970;28;45366;-83
2024/02/25 04:08:20;;;;;;;;;5.33;5.33;;;;;;;;5061306;28;45283;-83
2024/02/25 04:10:45;;;;;;;;;5.67;5.33;;;;;;;;5059799;28;45864;-82
2024/02/25 04:13:11;;;;;;;;;5.00;5.00;;;;;;;;5059607;28;45326;-83
2024/02/25 04:15:36;;;;;;;;;4.67;4.67;;;;;;;;5059634;28;45323;-82
2024/02/25 04:18:01;;;;;;;;;6.00;5.67;;;;;;;;5059697;28;45295;-83
2024/02/25 04:20:27;;;;;;;;;5.00;5.00;;;;;;;;5061355;28;45275;-84
2024/02/25 04:22:52;;;;;;;;;7.00;6.00;;;;;;;;5060272;28;45347;-83
2024/02/25 04:25:17;;;;;;;;;5.67;5.67;;;;;;;;5060544;28;45207;-83
2024/02/25 04:27:43;;;;;;;;;9.00;5.33;;;;;;;;5061907;28;45657;-82
2024/02/25 04:30:08;;;;;;;;;6.67;5.33;;;;;;;;5061438;28;46140;-83
2024/02/25 04:32:39;;;;;;;;;5.33;4.33;;;;;;;;5062033;28;45146;-83
2024/02/25 04:35:04;;;;;;;;;4.67;4.00;;;;;;;;5060122;28;45424;-83
2024/02/25 04:37:29;;;;;;;;;3.33;3.33;;;;;;;;5060416;28;46206;-83
2024/02/25 04:39:54;;;;;;;;;7.00;7.00;;;;;;;;5061115;28;46434;-84
2024/02/25 04:42:20;;;;;;;;;9.00;3.67;;;;;;;;5058317;28;45332;-83
2024/02/25 04:44:45;;;;;;;;;5.67;5.00;;;;;;;;5058235;28;45516;-83
2024/02/25 04:47:10;;;;;;;;;5.00;5.00;;;;;;;;5059828;28;45465;-84
2024/02/25 04:49:35;;;;;;;;;4.33;4.33;;;;;;;;5058027;28;48527;-83
2024/02/25 04:52:01;;;;;;;;;5.67;4.67;;;;;;;;5060579;28;45322;-83
2024/02/25 04:54:26;;;;;;;;;3.67;3.67;;;;;;;;5061729;28;45556;-83
2024/02/25 04:56:54;;;;;;;;;7.67;4.00;;;;;;;;5062229;28;45524;-83
2024/02/25 04:59:19;;;;;;;;;3.67;3.67;;;;;;;;5061707;28;45475;-84
2024/02/25 05:01:45;;;;;;;;;3.33;3.00;;;;;;;;5061043;28;45315;-83
2024/02/25 05:04:10;;;;;;;;;3.00;3.00;;;;;;;;5058224;28;45292;-84
2024/02/25 05:06:35;;;;;;;;;4.00;3.33;;;;;;;;5062625;28;45325;-83
2024/02/25 05:09:00;;;;;;;;;4.00;4.00;;;;;;;;5063091;28;45446;-84
2024/02/25 05:11:26;;;;;;;;;4.00;3.67;;;;;;;;5062327;28;45379;-83
2024/02/25 05:13:53;;;;;;;;;3.67;2.67;;;;;;;;5063839;28;45283;-83
2024/02/25 05:16:18;;;;;;;;;3.67;3.33;;;;;;;;5061565;28;45713;-83
2024/02/25 05:18:44;;;;;;;;;5.67;4.00;;;;;;;;5062179;28;46114;-83
2024/02/25 05:21:09;;;;;;;;;5.67;4.00;;;;;;;;5063227;28;45308;-83
2024/02/25 05:23:34;;;;;;;;;4.67;2.33;;;;;;;;5062901;28;45362;-83
2024/02/25 05:25:59;;;;;;;;;2.00;2.00;;;;;;;;5062233;28;45299;-84
2024/02/25 05:28:24;;;;;;;;;2.67;2.67;;;;;;;;5061955;28;45368;-83
2024/02/25 05:30:50;;;;;;;;;3.67;3.67;;;;;;;;5061006;28;45309;-84
2024/02/25 05:33:15;;;;;;;;;2.33;2.33;;;;;;;;5062705;28;45211;-84
2024/02/25 05:35:41;;;;;;;;;3.67;3.67;;;;;;;;5062545;28;45346;-83
2024/02/25 05:38:07;;;;;;;;;4.33;2.00;;;;;;;;5065753;28;45333;-84
2024/02/25 05:40:32;;;;;;;;;3.00;3.00;;;;;;;;5062387;28;45252;-84
2024/02/25 05:42:57;;;;;;;;;2.67;2.67;;;;;;;;5062243;28;45363;-85
2024/02/25 05:45:22;;;;;;;;;4.00;2.00;;;;;;;;5060686;28;47224;-84
2024/02/25 05:47:47;;;;;;;;;2.00;2.00;;;;;;;;5061908;28;45382;-83
2024/02/25 05:50:13;;;;;;;;;3.00;3.00;;;;;;;;5061870;28;45261;-83
2024/02/25 05:52:38;;;;;;;;;1.00;1.00;;;;;;;;5067839;28;45240;-84
2024/02/25 05:55:04;;;;;;;;;5.00;4.00;;;;;;;;5065996;28;46096;-83
2024/02/25 05:57:29;;;;;;;;;2.00;2.00;;;;;;;;5075370;28;45271;-83
2024/02/25 05:59:55;;;;;;;;;2.33;2.33;;;;;;;;5086184;27;45211;-83
2024/02/25 06:02:20;;;;;;;;;2.00;2.00;;;;;;;;5082381;27;45325;-83
2024/02/25 06:04:46;;;;;;;;;2.33;2.33;;;;;;;;5082381;27;45253;-84
2024/02/25 06:07:11;;;;;;;;;2.67;2.67;;;;;;;;5082061;27;45825;-84
2024/02/25 06:09:36;;;;;;;;;4.33;4.33;;;;;;;;5081740;27;45197;-84
2024/02/25 06:12:03;;;;;;;;;4.67;4.00;;;;;;;;5082280;27;45206;-83
2024/02/25 06:14:28;;;;;;;;;4.67;4.00;;;;;;;;5081932;27;45373;-84
2024/02/25 06:16:53;;;;;;;;;2.00;2.00;;;;;;;;5079444;28;47227;-83
2024/02/25 06:19:18;;;;;;;;;1.67;1.67;;;;;;;;5081734;28;45251;-83
2024/02/25 06:21:44;;;;;;;;;2.67;2.00;;;;;;;;5063386;27;45524;-85
2024/02/25 06:24:09;;;;;;;;;3.00;3.00;;;;;;;;5059718;28;46441;-84
2024/02/25 06:26:34;;;;;;;;;2.00;2.00;;;;;;;;5059215;28;47120;-84
2024/02/25 06:29:00;;;;;;;;;4.00;2.33;;;;;;;;5061653;28;45473;-83
2024/02/25 06:31:26;;;;;;;;;2.00;2.00;;;;;;;;5061480;28;45516;-85
2024/02/25 06:33:51;;;;;;;;;1.67;1.33;;;;;;;;5059094;28;46265;-84
2024/02/25 06:36:20;;;;;;;;;0.67;0.67;;;;;;;;5060407;28;45321;-84
2024/02/25 06:38:46;;;;;;;;;1.67;1.67;;;;;;;;5060380;28;45316;-84
2024/02/25 06:41:18;;;;;;;;;1.67;1.00;;;;;;;;5061029;28;45193;-82
2024/02/25 06:43:43;;;;;;;;;3.00;3.00;;;;;;;;5061051;28;45312;-81
2024/02/25 06:46:08;;;;;;;;;6.00;3.67;;;;;;;;5061557;28;46038;-82
2024/02/25 06:48:33;;;;;;;;;1.00;1.00;;;;;;;;5063329;28;45311;-82
2024/02/25 06:50:59;;;;;;;;;5.00;3.67;;;;;;;;5068767;28;45268;-81
2024/02/25 06:53:24;;;;;;;;;6.00;6.00;;;;;;;;5071955;28;45215;-82
2024/02/25 06:55:51;;;;;;;;;3.00;2.00;;;;;;;;5067178;28;47224;-81
2024/02/25 06:58:17;;;;;;;;;5.33;4.33;;;;;;;;5082912;28;45279;-82
2024/02/25 07:00:42;;;;;;;;;3.00;2.67;;;;;;;;5090338;28;45446;-81
2024/02/25 07:03:08;;;;;;;;;5.00;4.33;;;;;;;;5088181;27;45372;-82
2024/02/25 07:05:33;;;;;;;;;4.33;4.33;;;;;;;;5083653;27;45484;-86
2024/02/25 07:07:58;;;;;;;;;3.00;3.00;;;;;;;;5082488;27;45338;-86
2024/02/25 07:10:23;;;;;;;;;4.00;2.33;;;;;;;;5083428;27;45338;-86
2024/02/25 07:12:48;;;;;;;;;1.33;1.33;;;;;;;;5082308;27;45531;-86
2024/02/25 07:15:14;;;;;;;;;0.67;0.67;;;;;;;;5082503;27;46433;-85
2024/02/25 07:17:40;;;;;;;;;3.00;2.00;;;;;;;;5081271;28;45342;-86
2024/02/25 07:20:06;;;;;;;;;4.67;4.00;;;;;;;;5062306;28;45390;-83
2024/02/25 07:22:31;;;;;;;;;4.00;4.00;;;;;;;;5060292;28;45288;-83
2024/02/25 07:24:56;;;;;;;;;2.67;2.00;;;;;;;;5059501;28;47183;-83
2024/02/25 07:27:21;;;;;;;;;1.00;1.00;;;;;;;;5061323;28;45441;-83
2024/02/25 07:29:47;;;;;;;;;1.00;1.00;;;;;;;;5061932;28;45252;-84
2024/02/25 07:32:12;;;;;;;;;1.00;1.00;;;;;;;;5065727;28;45288;-84
2024/02/25 07:34:40;;;;;;;;;1.00;1.00;;;;;;;;5059719;28;47387;-86
2024/02/25 07:37:05;;;;;;;;;2.00;1.00;;;;;;;;5061746;28;45211;-84
2024/02/25 07:39:30;;;;;;;;;1.00;1.00;;;;;;;;5060874;28;45322;-85
2024/02/25 07:41:55;;;;;;;;;2.67;2.67;;;;;;;;5063731;28;45295;-85
2024/02/25 07:44:20;;;;;;;;;0.00;0.00;;;;;;;;5060508;28;46198;-87
2024/02/25 07:46:46;;;;;;;;;2.00;2.00;;;;;;;;5060358;28;45351;-85
2024/02/25 07:49:11;;;;;;;;;3.67;2.00;;;;;;;;5058317;28;45420;-80
2024/02/25 07:51:36;;;;;;;;;3.00;3.00;;;;;;;;5060256;28;45465;-80
2024/02/25 07:54:01;;;;;;;;;3.00;2.33;;;;;;;;5059616;28;45308;-80
2024/02/25 07:56:27;;;;;;;;;0.33;0.00;;;;;;;;5059863;28;45331;-80
2024/02/25 07:58:52;;;;;;;;;4.67;3.00;;;;;;;;5060167;28;45380;-80
2024/02/25 08:01:17;;;;;;;;;6.00;3.00;;;;;;;;5064432;28;45485;-81
2024/02/25 08:03:42;;;;;;;;;2.00;2.00;;;;;;;;5059686;28;45455;-80
2024/02/25 08:06:08;;;;;;;;;3.33;3.33;;;;;;;;5063914;28;45350;-80
2024/02/25 08:08:33;;;;;;;;;0.33;0.33;;;;;;;;5065709;28;45440;-79
2024/02/25 08:10:58;;;;;;;;;3.00;2.00;;;;;;;;5063109;28;45477;-80
2024/02/25 08:13:23;;;;;;;;;1.00;1.00;;;;;;;;5060066;28;45286;-79
2024/02/25 08:15:48;;;;;;;;;1.33;1.00;;;;;;;;5058939;28;45435;-79
2024/02/25 08:18:13;;;;;;;;;1.00;1.00;;;;;;;;5059602;28;45340;-79
2024/02/25 08:20:39;;;;;;;;;1.00;1.00;;;;;;;;5059290;28;45421;-80
2024/02/25 08:23:04;;;;;;;;;0.67;0.67;;;;;;;;5059760;28;45314;-79
2024/02/25 08:25:29;;;;;;;;;2.67;2.67;;;;;;;;5059469;28;45455;-79
2024/02/25 08:27:54;;;;;;;;;2.00;2.00;;;;;;;;5059021;28;45259;-79
2024/02/25 08:30:22;;;;;;;;;5.33;4.00;;;;;;;;5059279;28;45318;-79
2024/02/25 08:32:47;;;;;;;;;3.67;3.00;;;;;;;;5059301;28;46098;-79
2024/02/25 08:35:12;;;;;;;;;1.67;1.67;;;;;;;;5058907;28;45652;-79
2024/02/25 08:37:37;;;;;;;;;1.00;0.00;;;;;;;;5059773;28;45391;-78
2024/02/25 08:40:03;;;;;;;;;2.67;2.67;;;;;;;;5060765;28;45299;-78
2024/02/25 08:42:28;;;;;;;;;2.33;2.33;;;;;;;;5062490;28;45937;-79
2024/02/25 08:44:53;;;;;;;;;3.00;3.00;;;;;;;;5063134;28;45326;-80
2024/02/25 08:47:18;;;;;;;;;3.00;3.00;;;;;;;;5062564;28;45387;-79
2024/02/25 08:49:44;;;;;;;;;2.67;2.67;;;;;;;;5062020;28;45359;-80
2024/02/25 08:52:09;;;;;;;;;2.67;2.67;;;;;;;;5062797;28;45959;-77
2024/02/25 08:54:35;;;;;;;;;3.00;3.00;;;;;;;;5061814;28;45493;-77
2024/02/25 08:57:01;;;;;;;;;1.00;1.00;;;;;;;;5066586;28;45449;-78
2024/02/25 08:59:26;;;;;;;;;1.33;1.33;;;;;;;;5083205;27;45353;-79
2024/02/25 09:01:52;;;;;;;;;2.00;2.00;;;;;;;;5082619;28;45464;-80
2024/02/25 09:04:17;;;;;;;;;3.33;3.00;;;;;;;;5083080;27;45335;-79
2024/02/25 09:06:42;;;;;;;;;2.67;2.67;;;;;;;;5082994;27;45702;-79
2024/02/25 09:09:07;;;;;;;;;3.00;3.00;;;;;;;;5082951;27;45692;-79
2024/02/25 09:11:32;;;;;;;;;1.00;1.00;;;;;;;;5082700;28;45450;-80
2024/02/25 09:13:58;;;;;;;;;3.33;1.33;;;;;;;;5084908;27;45382;-81
2024/02/25 09:16:23;;;;;;;;;1.00;1.00;;;;;;;;5083970;28;45734;-80
2024/02/25 09:18:48;;;;;;;;;2.00;2.00;;;;;;;;5081039;28;45845;-79
2024/02/25 09:21:14;;;;;;;;;3.00;2.00;;;;;;;;5082410;27;45614;-79
2024/02/25 09:23:39;;;;;;;;;2.67;1.67;;;;;;;;5082689;27;45320;-80
2024/02/25 09:26:10;;;;;;;;;3.00;1.00;;;;;;;;5083090;27;45643;-79
2024/02/25 09:28:35;;;;;;;;;2.00;1.67;;;;;;;;5063152;27;45482;-79
2024/02/25 09:31:01;;;;;;;;;1.00;1.00;;;;;;;;5061147;28;46362;-80
2024/02/25 09:33:29;;;;;;;;;2.00;2.00;;;;;;;;5062187;28;45398;-79
2024/02/25 09:35:55;;;;;;;;;3.00;2.00;;;;;;;;5062000;28;45346;-79
2024/02/25 09:38:22;;;;;;;;;0.67;0.67;;;;;;;;5055022;28;45449;-78
2024/02/25 09:40:47;;;;;;;;;2.67;2.00;;;;;;;;5054888;28;46654;-78
2024/02/25 09:43:19;;;;;;;;;2.67;2.00;;;;;;;;5060219;28;45315;-79
2024/02/25 09:45:47;;;;;;;;;2.33;1.00;;;;;;;;5059887;28;45497;-80
2024/02/25 09:48:12;;;;;;;;;2.00;2.00;;;;;;;;5059840;28;46193;-80
2024/02/25 09:50:41;;;;;;;;;2.00;1.67;;;;;;;;5058513;28;48061;-79
2024/02/25 09:53:07;;;;;;;;;2.00;2.00;;;;;;;;5061012;28;45398;-78
2024/02/25 09:55:32;;;;;;;;;3.00;2.00;;;;;;;;5060709;28;45511;-80
2024/02/25 09:57:57;;;;;;;;;1.67;1.00;;;;;;;;5073822;28;45277;-78
2024/02/25 10:00:23;;;;;;;;;2.00;2.00;;;;;;;;5083329;27;46162;-81
2024/02/25 10:02:49;;;;;;;;;2.00;1.67;;;;;;;;5079652;28;45296;-81
2024/02/25 10:05:15;;;;;;;;;1.00;1.00;;;;;;;;5058892;28;45492;-79
2024/02/25 10:07:43;;;;;;;;;1.00;1.00;;;;;;;;5058473;28;46138;-79
2024/02/25 10:10:12;;;;;;;;;2.00;1.67;;;;;;;;5058344;28;45471;-80
2024/02/25 10:12:40;;;;;;;;;2.00;2.00;;;;;;;;5060358;28;45579;-80
2024/02/25 10:15:07;;;;;;;;;4.00;4.00;;;;;;;;5059319;28;45461;-78
2024/02/25 10:17:33;;;;;;;;;3.00;3.00;;;;;;;;5058823;28;45715;-77
2024/02/25 10:20:01;;;;;;;;;1.67;1.67;;;;;;;;5059726;28;45318;-79
2024/02/25 10:22:29;;;;;;;;;2.00;2.00;;;;;;;;5059371;28;45363;-77
2024/02/25 10:25:04;;;;;;;;;2.00;2.00;;;;;;;;5060069;27;45425;-77
2024/02/25 10:27:29;;;;;;;;;2.00;2.00;;;;;;;;5059789;28;45374;-77
2024/02/25 10:29:56;;;;;;;;;3.33;2.00;;;;;;;;5056214;28;45487;-77
2024/02/25 10:32:31;;;;;;;;;1.00;1.00;;;;;;;;5058751;28;45415;-77
2024/02/25 10:34:58;;;;;;;;;0.67;0.67;;;;;;;;5057556;28;45659;-77
2024/02/25 10:37:24;;;;;;;;;2.00;2.00;;;;;;;;5059526;28;45355;-77
2024/02/25 10:40:07;;;;;;;;;1.00;1.00;;;;;;;;5057654;28;47246;-77
2024/02/25 10:42:41;;;;;;;;;0.00;0.00;;;;;;;;5058891;28;45358;-77
2024/02/25 10:45:08;;;;;;;;;1.67;1.67;;;;;;;;5060068;28;45239;-77
2024/02/25 10:47:36;;;;;;;;;2.00;2.00;;;;;;;;5059383;28;45496;-77
2024/02/25 10:50:01;;;;;;;;;2.00;2.00;;;;;;;;5057691;28;47699;-78
2024/02/25 10:52:26;;;;;;;;;3.00;1.67;;;;;;;;5058716;28;45310;-78
2024/02/25 10:54:52;;;;;;;;;2.00;2.00;;;;;;;;5059520;28;45320;-79
2024/02/25 10:57:18;;;;;;;;;1.00;1.00;;;;;;;;5061809;28;45343;-78
2024/02/25 10:59:46;;;;;;;;;1.67;1.67;;;;;;;;5063174;28;45362;-78
2024/02/25 11:02:12;;;;;;;;;3.00;1.00;;;;;;;;5059441;28;45243;-78
2024/02/25 11:04:37;;;;;;;;;1.33;1.33;;;;;;;;5060612;28;45342;-79
2024/02/25 11:07:05;;;;;;;;;1.33;0.67;;;;;;;;5060196;28;45387;-78
2024/02/25 11:09:31;;;;;;;;;2.00;0.67;;;;;;;;5058753;28;45737;-79
2024/02/25 11:12:12;;;;;;;;;0.00;0.00;;;;;;;;5058508;28;45650;-78
2024/02/25 11:14:39;;;;;;;;;1.00;1.00;;;;;;;;5060391;28;45401;-77
2024/02/25 11:17:14;;;;;;;;;1.00;1.00;;;;;;;;5060699;28;45318;-79
2024/02/25 11:19:39;;;;;;;;;0.00;0.00;;;;;;;;5060739;28;45536;-79
2024/02/25 11:22:05;;;;;;;;;1.67;1.00;;;;;;;;5060916;28;45465;-78
2024/02/25 11:24:46;;;;;;;;;1.00;1.00;;;;;;;;5061084;28;45485;-78
2024/02/25 11:27:14;;;;;;;;;3.67;3.00;;;;;;;;5060068;28;45442;-78
2024/02/25 11:29:41;;;;;;;;;3.67;3.67;;;;;;;;5060042;28;45490;-76
2024/02/25 11:32:07;;;;;;;;;2.00;2.00;;;;;;;;5060249;28;45301;-78
2024/02/25 11:34:34;;;;;;;;;2.00;2.00;;;;;;;;5060097;28;45272;-77
2024/02/25 11:37:00;;;;;;;;;1.00;1.00;;;;;;;;5060226;28;45361;-77
2024/02/25 11:39:26;;;;;;;;;1.33;1.33;;;;;;;;5059964;28;45399;-77
2024/02/25 11:42:09;;;;;;;;;1.67;1.67;;;;;;;;5058670;28;45366;-77
2024/02/25 11:44:35;;;;;;;;;2.67;2.00;;;;;;;;5060065;28;45299;-77
2024/02/25 11:47:05;;;;;;;;;1.00;1.00;;;;;;;;5059922;28;45800;-76
2024/02/25 11:49:30;;;;;;;;;2.00;2.00;;;;;;;;5059466;28;45276;-78
2024/02/25 11:51:56;;;;;;;;;1.33;1.33;;;;;;;;5059764;28;45383;-77
2024/02/25 11:54:21;;;;;;;;;1.00;1.00;;;;;;;;5059746;28;45458;-76
2024/02/25 11:56:48;;;;;;;;;1.00;1.00;;;;;;;;5062542;28;45279;-75
2024/02/25 11:59:13;;;;;;;;;0.00;0.00;;;;;;;;5079919;27;45445;-76
2024/02/25 12:01:40;;;;;;;;;3.00;2.33;;;;;;;;5080163;27;45270;-76
2024/02/25 12:04:05;;;;;;;;;1.33;1.33;;;;;;;;5080148;27;45313;-76
2024/02/25 12:06:32;;;;;;;;;2.00;2.00;;;;;;;;5072489;28;45559;-79
2024/02/25 12:08:57;;;;;;;;;2.00;2.00;;;;;;;;5058276;28;46013;-78
2024/02/25 12:11:23;;;;;;;;;2.00;1.67;;;;;;;;5058266;28;45358;-77
2024/02/25 12:13:48;;;;;;;;;2.33;2.00;;;;;;;;5054796;28;45452;-77
2024/02/25 12:16:13;;;;;;;;;2.00;2.00;;;;;;;;5059351;28;45363;-78
2024/02/25 12:18:38;;;;;;;;;2.00;1.00;;;;;;;;5058879;28;46198;-79
2024/02/25 12:21:04;;;;;;;;;3.00;2.00;;;;;;;;5051261;28;45466;-77
2024/02/25 12:23:32;;;;;;;;;1.00;1.00;;;;;;;;5058408;28;45330;-77
2024/02/25 12:26:01;;;;;;;;;2.33;2.33;;;;;;;;5058756;28;45297;-76
2024/02/25 12:28:27;;;;;;;;;1.67;1.00;;;;;;;;5058367;28;45566;-77
2024/02/25 12:30:53;;;;;;;;;1.33;1.33;;;;;;;;5058562;28;45430;-76
2024/02/25 12:33:18;;;;;;;;;4.00;4.00;;;;;;;;5058513;28;45390;-77
2024/02/25 12:35:45;;;;;;;;;1.00;1.00;;;;;;;;5057930;28;45641;-78
2024/02/25 12:38:11;;;;;;;;;2.00;2.00;;;;;;;;5057674;28;47161;-77
2024/02/25 12:40:44;;;;;;;;;1.00;1.00;;;;;;;;5057891;28;45271;-78
2024/02/25 12:43:09;;;;;;;;;1.00;1.00;;;;;;;;5056266;28;45314;-77
2024/02/25 12:45:34;;;;;;;;;1.67;1.67;;;;;;;;5058015;28;45602;-77
2024/02/25 12:47:59;;;;;;;;;0.00;0.00;;;;;;;;5058162;28;45950;-77
2024/02/25 12:50:24;;;;;;;;;2.00;1.00;;;;;;;;5057890;28;45418;-77
2024/02/25 12:52:50;;;;;;;;;1.00;1.00;;;;;;;;5058000;28;45196;-77
2024/02/25 12:55:15;;;;;;;;;1.00;0.00;;;;;;;;5058095;28;45494;-77
2024/02/25 12:57:40;;;;;;;;;0.67;0.67;;;;;;;;5061006;28;46126;-77
2024/02/25 13:00:06;;;;;;;;;0.00;0.00;;;;;;;;5055810;28;45569;-78
2024/02/25 13:02:32;;;;;;;;;0.00;0.00;;;;;;;;5055669;28;46551;-77
2024/02/25 13:04:57;;;;;;;;;2.00;1.00;;;;;;;;5056656;28;45294;-76
2024/02/25 13:07:23;;;;;;;;;0.00;0.00;;;;;;;;5057555;28;45453;-77
2024/02/25 13:09:48;;;;;;;;;2.00;0.00;;;;;;;;5057796;28;45412;-76
2024/02/25 13:12:13;;;;;;;;;1.33;1.00;;;;;;;;5056891;28;45391;-76
2024/02/25 13:14:39;;;;;;;;;1.00;1.00;;;;;;;;5057281;28;45401;-78
2024/02/25 13:17:04;;;;;;;;;1.00;1.00;;;;;;;;5057162;28;46123;-77
2024/02/25 13:19:30;;;;;;;;;1.00;1.00;;;;;;;;5056306;28;45485;-76
2024/02/25 13:21:55;;;;;;;;;1.00;1.00;;;;;;;;5055014;28;45556;-78
2024/02/25 13:24:20;;;;;;;;;1.67;1.00;;;;;;;;5057626;28;45444;-77
2024/02/25 13:26:45;;;;;;;;;1.00;1.00;;;;;;;;5057069;28;46215;-78
2024/02/25 13:29:11;;;;;;;;;1.00;0.33;;;;;;;;5059819;28;45449;-76
2024/02/25 13:31:36;;;;;;;;;1.67;1.00;;;;;;;;5061611;28;45496;-77
2024/02/25 13:34:01;;;;;;;;;1.00;1.00;;;;;;;;5061440;28;45550;-77
2024/02/25 13:36:32;;;;;;;;;1.00;1.00;;;;;;;;5059622;28;46304;-77
2024/02/25 13:38:57;;;;;;;;;1.00;1.00;;;;;;;;5059999;28;46307;-77
2024/02/25 13:41:22;;;;;;;;;2.00;0.00;;;;;;;;5061526;28;45528;-77
2024/02/25 13:43:47;;;;;;;;;0.00;0.00;;;;;;;;5061389;28;45481;-77
2024/02/25 13:46:14;;;;;;;;;0.00;0.00;;;;;;;;5061481;28;46131;-78
2024/02/25 13:48:39;;;;;;;;;1.00;1.00;;;;;;;;5061189;28;45358;-75
2024/02/25 13:51:04;;;;;;;;;1.00;0.00;;;;;;;;5061642;28;45274;-77
2024/02/25 13:53:29;;;;;;;;;0.00;0.00;;;;;;;;5059529;28;45841;-77
2024/02/25 13:55:55;;;;;;;;;1.00;1.00;;;;;;;;5052303;28;46243;-78
2024/02/25 13:58:20;;;;;;;;;0.00;0.00;;;;;;;;5056603;28;45365;-79
2024/02/25 14:00:45;;;;;;;;;5.33;1.00;;;;;;;;5060939;28;45623;-80
2024/02/25 14:03:11;;;;;;;;;0.00;0.00;;;;;;;;5060535;28;45426;-80
2024/02/25 14:05:36;;;;;;;;;0.00;0.00;;;;;;;;5060680;28;45418;-81
2024/02/25 14:08:02;;;;;;;;;0.33;0.33;;;;;;;;5060858;28;45582;-80
2024/02/25 14:10:27;;;;;;;;;0.00;0.00;;;;;;;;5059581;28;45532;-80
2024/02/25 14:12:53;;;;;;;;;0.00;0.00;;;;;;;;5057375;28;45975;-80
2024/02/25 14:15:18;;;;;;;;;0.00;0.00;;;;;;;;5057038;28;47501;-81
2024/02/25 14:17:44;;;;;;;;;0.00;0.00;;;;;;;;5050870;28;45370;-81
2024/02/25 14:20:09;;;;;;;;;0.00;0.00;;;;;;;;5045368;28;45342;-79
2024/02/25 14:22:38;;;;;;;;;1.00;1.00;;;;;;;;5040660;28;45976;-79
2024/02/25 14:25:04;;;;;;;;;0.00;0.00;;;;;;;;5040735;28;45288;-78
2024/02/25 14:27:31;;;;;;;;;0.33;0.33;;;;;;;;5039649;28;45709;-79
2024/02/25 14:29:56;;;;;;;;;0.00;0.00;;;;;;;;5058382;28;45497;-81
2024/02/25 14:32:21;;;;;;;;;1.00;1.00;;;;;;;;5059638;28;45338;-80
2024/02/25 14:34:47;;;;;;;;;0.00;0.00;;;;;;;;5059969;28;46439;-80